Accueil
METAR-TAF:

METAR-TAF

Aéroports :

Woodward, Oklahoma, États-Unis

latitude: 36-26-12N, longitude: 099-31-16W, altitude: 667 m

METAR: absent

Heure: 22:15 (03:15 UTC)

Prévision

Le bulletin a été fait il y a 3 heures et 55 minutes, à 23:20 UTC
Prévision valable du 13 à 00 UTC au 13 à 24 UTC
Vent 15 kt de sud
Visibilité: 10 km
Ciel clair
A partir de 13 à 1500 UTC
Vent 17 kt de sud/sud-ouest avec des rafales jusqu'à 24 kt
Visibilité: 10 km
Quelques nuages à une hauteur de 10000 ft

TAF: KWWR 122320Z 1300/1324 18015KT P6SM SKC FM131500 20017G24KT P6SM FEW100

Observations et prévisions météorologiques de plus de 4000 aéroports (messages METAR et TAF).

Les stations disponibles sont représentées par des disques jaunes et rouges sur la carte.

Passer la souris dessus pour voir le nom de la station.

Cliquer dessus pour voir les observations et prévisions météorologiques.

Pour changer de carte: cliquez sur les boutons verts avec une croix noire pour zoomer, sur le bouton vert avec un tiret pour effectuer un zoom arrière, ou sur les flèches vertes pour les cartes adjacentes.


METAR-TAF: